航空気象通報

ウインドサーファーのための航空気象通報による風予報です。

7/29-7/30の航空気象通報(国内、海外)

2012年07月29日 22時05分14秒 | TAF

羽田空港
TAF RJTT 290838Z 2909/3012 18016KT 9999 FEW020
日本時間29日18時-30日21時:180度から16ノットの風

静岡空港
TAF RJNS 290838Z 2909/3012 23006KT 9999 FEW010 SCT020
     TEMPO 2916/2921 4000 BR FEW004 BKN007
     BECMG 3000/3003 17008KT
日本時間29日18時-30日09時:230度から6ノットの風
09-12時:風が変化
12-21時:170度から8ノットの風

但し、30日01-06時の間:ときどき、もや

福岡空港
TAF RJFF 290841Z 2909/3012 32006KT 9999 FEW020
     BECMG 2912/2914 14003KT
     BECMG 3000/3003 33008KT
     TEMPO 3003/3009 3000 TSRA BR FEW010 BKN030 FEW030CB
日本時間29日18-21時:320度から6ノットの風
21-23時:風が変化
23時-30日09時:140度から3ノットの風
09-12時:風が変化
12-21時:330度から8ノットの風

但し、30日12-18時の間:ときどき

那覇空港
TAF ROAH 290838Z 2909/3012 10010KT 9999 SCT020
日本時間29日18時-30日21時:100度から10ノットの風

マウイのカフルイ空港
PHOG 291140Z 2912/3012 07010KT P6SM VCSH BKN050
     TEMPO 2912/2915 07010G20KT
     FM291900 07015G25KT P6SM BKN050
     FM300600 07012KT P6SM SCT050 AMD LTD TO WX VIS AND WIND TIL 291600
ハワイ時間29日02-09時:070度から10ノットの風
但し、02-05時の間:ときどき070度から10ノット、突風20ノット
09-20時:070度から15ノット、突風25ノット
20時-30日02時:070度から12ノットの風

サイパン空港
PGSN 291120Z 2912/3012 20007KT P6SM VCSH FEW020 SCT090
マリアナ時間29日22時-30日22時:200度から7ノットの風

コメント

7/28-7/29の航空気象通報(国内、海外)

2012年07月28日 21時00分30秒 | TAF

羽田空港
TAF RJTT 280838Z 2809/2912 20016KT 9999 FEW030
     BECMG 2816/2818 20006KT
     BECMG 2900/2903 18016KT
日本時間28日18時-29日01時:200度から16ノットの風
01-03時:風が変化
03-09時:200度から6ノットの風
09-12時:風が変化
12-21時:180度から16ノットの風

静岡空港
TAF RJNS 280842Z 2809/2912 24006KT 9999 FEW020 SCT040
     TEMPO 2815/2821 3000 BR FEW003 BKN005
     BECMG 2900/2903 19010KT
     BECMG 2909/2912 24004KT
日本時間28日18時-29日09時:240度から6ノットの風
09-12時:風が変化
12-18時:190度から10ノットの風
18-21時:風が変化
21時:240度から4ノットの風

但し、29日00-06時の間:ときどき、もや

福岡空港
TAF RJFF 280842Z 2809/2912 33008KT 9999 FEW030
     BECMG 2811/2813 14004KT
     BECMG 2900/2903 32011KT
日本時間28日18-20時:330度から8ノットの風
20-22時:風が変化
22時-28日09時:140度から4ノットの風
09-12時:風が変化
12-21時:320度から11ノットの風

那覇空港
TAF ROAH 280837Z 2809/2912 10008KT 9999 SCT015
日本時間28日18時-29日21時:100度から8ノットの風

マウイのカフルイ空港
PHOG 281135Z 2812/2912 05008G12KT P6SM BKN050
     FM282100 05018G23KT P6SM BKN050 AMD LTD TO WX VIS AND WIND TIL 281600
ハワイ時間28日02-11時:050度から8ノット、突風12ノット
11時-29日02時:050度から18ノット、突風23ノット

サイパン空港
PGSN 281120Z 2812/2912 11008KT P6SM VCSH SCT016 SCT040 BKN100
マリアナ時間28日22時-29日22時:110度から8ノットの風

コメント

7/27-7/28の航空気象通報(国内、海外)

2012年07月28日 00時05分29秒 | TAF

羽田空港
TAF RJTT 270841Z 2709/2812 18012KT 9999 FEW030
     TEMPO 2718/2724 4000 BR
日本時間27日18時-28日21時:180度から12ノットの風

但し、28日03-09時の間:ときどき、もや

静岡空港
TAF RJNS 270839Z 2709/2812 24008KT 9999 FEW020 SCT040
     TEMPO 2715/2721 3000 BR SCT005 BKN008
日本時間27日18時-28日21時:240度から8ノットの風

但し、28日00-06時の間:ときどき、もや

福岡空港
TAF RJFF 270842Z 2709/2812 33007KT 9999 FEW015 SCT030
     BECMG 2711/2713 14004KT
     BECMG 2800/2803 31010KT
     BECMG 2809/2812 01004KT
日本時間27日18-20時:330度から7ノットの風
20-22時:風が変化
22時-28日09時:140度から4ノットの風
09-12時:風が変化
12-18時:310度から10ノットの風
18-21時:風が変化
21時:010度から4ノットの風

那覇空港
TAF ROAH 270838Z 2709/2812 11008KT 9999 FEW020 SCT030
     TEMPO 2712/2715 3000 SHRA FEW020 FEW025CB SCT030
日本時間27日18時-28日21時:110度から8ノットの風

但し、27日21-24時の間:ときどき

マウイのカフルイ空港
PHOG 271135Z 2712/2812 05008KT P6SM SCT060
     FM271900 06018G25KT P6SM FEW040 SCT060
     FM280400 05012KT P6SM FEW040 SCT060
     FM281000 05008KT P6SM SCT060 AMD LTD TO WX VIS AND WIND TIL 271600
ハワイ時間27日02-09時:050度から8ノットの風
09-18時:060度から18ノット、突風25ノット
18-24時:050度から12ノットの風
28日00-02時:050度から8ノットの風

サイパン空港PGSN 271120Z 2712/2812 VRB05KT P6SM VCSH FEW020 SCT050 SCT120
     FM280100 15009KT P6SM VCSH FEW020 SCT050 SCT120
マリアナ時間27日22時-28日11時:風向不定5ノットの風
11-22時:150度から9ノットの風

コメント

7/26-7/27の航空気象通報(国内、海外)

2012年07月26日 22時22分29秒 | TAF

羽田空港
TAF RJTT 260848Z 2609/2712 18008KT 9999 FEW030
日本時間26日18時-27日21時:180度から8ノットの風

静岡空港
TAF AMD RJNS 261003Z 2610/2712 24006KT 9999 FEW015 SCT020
     TEMPO 2616/2621 3000 BR FEW004 BKN008
日本時間26日19時-27日21時:240度から6ノットの風

但し、26日01-06時の間:ときどき、もや

福岡空港
TAF RJFF 260843Z 2609/2712 32006KT 9000 FEW030
     BECMG 2611/2613 14005KT
     BECMG 2703/2706 32011KT
日本時間26日18-20時:320度から6ノットの風
20-22時:風が変化
22時-27日12時:140度から5ノットの風
12-15時:風が変化
15-21時:320度から11ノットの風

那覇空港
TAF ROAH 260838Z 2609/2712 13009KT 9999 FEW015 SCT030
     TEMPO 2703/2706 4000 SHRA FEW015 BKN020 FEW025CB
日本時間26日18時-27日21時:130度から9ノットの風

但し、27日12-15時の間:ときどき

マウイのカフルイ空港
PHOG 261136Z 2612/2712 05012KT P6SM FEW050
     FM262000 05018G25KT P6SM FEW035 SCT050
     FM270500 05010KT P6SM SCT050 AMD LTD TO WX VIS AND WIND TIL 261600
ハワイ時間26日02-10時:050度から12ノットの風
10-19時:050度から18ノット、突風25ノット
19時-27日02時:050度から10ノットの風

サイパン空港
PGSN 261135Z 2612/2712 VRB05KT P6SM VCSH SCT018 BKN100
マリアナ時間26日22時-27日22時:風向不定5ノットの風

コメント

7/25-7/26の航空気象通報(国内、海外)

2012年07月26日 00時20分29秒 | TAF

羽田空港
TAF RJTT 250837Z 2509/2612 18010KT 9999 FEW030
     TEMPO 2518/2521 4000 BR
     BECMG 2521/2524 10008KT
     BECMG 2600/2603 16012KT
日本時間25日18時-26日06時:180度から10ノットの風
06-09時:風が変化
09時:100度から8ノットの風
09-12時:風が変化
12-21時:160度から12ノットの風

但し、26日03-06時の間:ときどき、もや

静岡空港
TAF RJNS 250855Z 2509/2612 24006KT 9999 FEW015 SCT030
     TEMPO 2515/2521 4000 BR
     BECMG 2600/2603 12006KT
     BECMG 2606/2609 24006KT
日本時間25日18時-26日09時:240度から6ノットの風
09-12時:風が変化
12-15時:120度から6ノットの風
15-18時:風が変化
18-21時:240度から6ノットの風

但し、26日00-06時の間:ときどき、もや

福岡空港
TAF RJFF 250839Z 2509/2612 32006KT 6000 FEW025
     BECMG 2511/2513 13003KT
     TEMPO 2518/2524 4000 BR
     BECMG 2600/2603 32010KT
日本時間25日18-20時:320度から6ノットの風
20-22時:風が変化
22時-26日09時:130度から3ノットの風
09-12時:風が変化
12-21時:320度から10ノットの風

那覇空港
TAF ROAH 250838Z 2509/2612 12007KT 9999 FEW015 SCT045
日本時間25日18時-26日21時:120度から7ノットの風

マウイのカフルイ空港
PHOG 251135Z 2512/2612 05012KT P6SM SCT030 SCT060
     FM252000 06020G30KT P6SM FEW035 SCT060
     FM260400 05015G22KT P6SM FEW035 SCT060
     FM260800 05011KT P6SM FEW030 SCT060 AMD LTD TO WX VIS AND WIND TIL 251600
ハワイ時間25日02-10時:050度から12ノットの風
10-18時:060度から20ノット、突風30ノット
18-22時:050度から15ノット、突風22ノット
22時-26日02時:050度から11ノットの風

サイパン空港
PGSN 251150Z 2512/2612 10006KT P6SM VCSH FEW020 SCT060
マリアナ時間25日22時-26日22時:100度から6ノットの風

コメント